Time;durP1;ratioP1;P1;durP2;ratioP2;P2;SDS_P1;SDS_P2;PMS_P1;PMS_P2;Temp;Humidity;BMP_temperature;BMP_pressure;BME280_temperature;BME280_humidity;BME280_pressure;Samples;Min_cycle;Max_cycle;Signal;HPM_P1;HPM_P2
2023/10/06 00:02:09;;;;;;;4.80;3.13;;;18.60;99.90;;;;;;4995065;28;20049;-72
2023/10/06 00:04:41;;;;;;;6.28;3.70;;;18.50;99.90;;;;;;4989772;28;20032;-74
2023/10/06 00:07:07;;;;;;;8.43;3.30;;;18.60;99.90;;;;;;4986163;28;20765;-71
2023/10/06 00:09:33;;;;;;;6.75;3.45;;;18.50;99.90;;;;;;5026734;28;20043;-73
2023/10/06 00:11:59;;;;;;;8.57;3.50;;;18.50;99.90;;;;;;5010707;28;20057;-70
2023/10/06 00:14:48;;;;;;;6.43;3.42;;;18.60;99.90;;;;;;4996485;28;20044;-76
2023/10/06 00:17:18;;;;;;;6.57;3.58;;;18.50;99.90;;;;;;5012926;28;20033;-71
2023/10/06 00:19:45;;;;;;;10.20;3.90;;;18.50;99.90;;;;;;4975738;28;20441;-72
2023/10/06 00:24:47;;;;;;;10.25;4.13;;;18.50;99.90;;;;;;5012679;28;20045;-73
2023/10/06 00:27:14;;;;;;;8.93;4.35;;;18.50;99.90;;;;;;5012595;28;20501;-73
2023/10/06 00:29:43;;;;;;;8.63;3.33;;;18.60;99.90;;;;;;5012412;28;20509;-71
2023/10/06 00:32:31;;;;;;;10.13;3.80;;;18.60;99.90;;;;;;5012807;28;20053;-72
2023/10/06 00:35:08;;;;;;;7.72;4.07;;;18.50;99.90;;;;;;5011352;28;20374;-70
2023/10/06 00:37:38;;;;;;;10.20;3.60;;;18.60;99.90;;;;;;4995373;28;20037;-71
2023/10/06 00:40:19;;;;;;;11.48;4.45;;;18.50;99.90;;;;;;4995099;28;20045;-69
2023/10/06 00:42:50;;;;;;;12.90;4.07;;;18.50;99.90;;;;;;5013081;28;20129;-71
2023/10/06 00:45:16;;;;;;;8.25;3.63;;;18.50;99.90;;;;;;4995650;28;20099;-72
2023/10/06 00:47:42;;;;;;;9.82;4.15;;;18.50;99.90;;;;;;4994964;28;20045;-72
2023/10/06 00:50:12;;;;;;;9.73;4.20;;;18.50;99.90;;;;;;5010895;28;20085;-72
2023/10/06 00:52:39;;;;;;;12.13;3.92;;;18.50;99.90;;;;;;5012683;28;20037;-73
2023/10/06 00:55:10;;;;;;;8.68;3.65;;;18.50;99.90;;;;;;5010152;28;20662;-69
2023/10/06 00:57:37;;;;;;;10.23;3.70;;;18.50;99.90;;;;;;5011989;28;20037;-70
2023/10/06 01:00:16;;;;;;;13.00;4.82;;;18.60;99.90;;;;;;5022405;28;20037;-72
2023/10/06 01:02:43;;;;;;;8.40;3.58;;;18.50;99.90;;;;;;5045252;28;20152;-74
2023/10/06 01:05:09;;;;;;;13.07;3.78;;;18.50;99.90;;;;;;5031712;28;20128;-72
2023/10/06 01:07:36;;;;;;;9.35;4.05;;;18.50;99.90;;;;;;5011081;28;20041;-71
2023/10/06 01:10:16;;;;;;;10.73;4.40;;;18.60;99.90;;;;;;5011465;28;20127;-71
2023/10/06 01:12:43;;;;;;;9.40;4.03;;;18.50;99.90;;;;;;5011233;28;20050;-73
2023/10/06 01:15:16;;;;;;;8.27;4.18;;;18.50;99.90;;;;;;5011930;28;20206;-70
2023/10/06 01:17:43;;;;;;;9.33;3.90;;;18.60;99.90;;;;;;5011955;28;20058;-72
2023/10/06 01:20:11;;;;;;;12.43;4.15;;;18.50;99.90;;;;;;5011092;28;20053;-75
2023/10/06 01:22:44;;;;;;;7.40;3.88;;;18.50;99.90;;;;;;5008907;28;20045;-71
2023/10/06 01:25:13;;;;;;;13.07;4.60;;;18.60;99.90;;;;;;5011243;28;20736;-72
2023/10/06 01:27:39;;;;;;;8.65;3.63;;;18.50;99.90;;;;;;4996525;28;20053;-72
2023/10/06 01:30:23;;;;;;;15.48;4.85;;;18.50;99.90;;;;;;5011879;28;20037;-73
2023/10/06 01:32:50;;;;;;;10.60;4.75;;;18.50;99.90;;;;;;5011431;28;20049;-70
2023/10/06 01:35:18;;;;;;;12.82;4.93;;;18.60;99.90;;;;;;5010704;28;20083;-70
2023/10/06 01:37:48;;;;;;;12.38;5.18;;;18.60;99.90;;;;;;4993255;28;20052;-73
2023/10/06 01:42:56;;;;;;;11.52;5.05;;;18.50;99.90;;;;;;5011255;28;20049;-70
2023/10/06 01:45:21;;;;;;;10.80;4.72;;;18.60;99.90;;;;;;5011328;28;20037;-75
2023/10/06 01:47:55;;;;;;;9.00;5.43;;;18.50;99.90;;;;;;5011908;28;20132;-73
2023/10/06 01:50:26;;;;;;;11.80;5.00;;;18.60;99.90;;;;;;4996432;28;20118;-74
2023/10/06 01:52:54;;;;;;;11.13;4.55;;;18.60;99.90;;;;;;5011427;28;20053;-70
2023/10/06 01:55:23;;;;;;;12.77;5.32;;;18.50;99.90;;;;;;4993078;28;20501;-73
2023/10/06 01:57:49;;;;;;;12.05;5.50;;;18.50;99.90;;;;;;5008770;28;20160;-72
2023/10/06 02:00:17;;;;;;;12.27;5.00;;;18.50;99.90;;;;;;5021899;28;20103;-75
2023/10/06 02:02:42;;;;;;;9.88;5.30;;;18.60;99.90;;;;;;4995628;28;20045;-72
2023/10/06 02:05:12;;;;;;;12.35;5.90;;;18.50;99.90;;;;;;5013512;28;20386;-70
2023/10/06 02:07:41;;;;;;;10.30;4.82;;;18.50;99.90;;;;;;5014194;28;20077;-73
2023/10/06 02:10:15;;;;;;;11.13;5.35;;;18.60;99.90;;;;;;5013599;28;20049;-75
2023/10/06 02:12:41;;;;;;;11.65;5.68;;;18.50;99.90;;;;;;5011233;28;20414;-71
2023/10/06 02:15:10;;;;;;;10.00;6.25;;;18.50;99.90;;;;;;4997168;28;20386;-72
2023/10/06 02:17:37;;;;;;;13.23;6.65;;;18.60;99.90;;;;;;5014094;28;20501;-73
2023/10/06 02:20:12;;;;;;;13.80;6.32;;;18.60;99.90;;;;;;5013765;28;20141;-73
2023/10/06 02:22:38;;;;;;;15.65;7.07;;;18.50;99.90;;;;;;5000454;28;20115;-75
2023/10/06 02:25:09;;;;;;;11.02;6.35;;;18.60;99.90;;;;;;4998178;28;20041;-69
2023/10/06 02:27:44;;;;;;;16.38;7.25;;;18.60;99.90;;;;;;5011531;28;20408;-72
2023/10/06 02:30:24;;;;;;;12.02;6.68;;;18.60;99.90;;;;;;5002564;28;20090;-70
2023/10/06 02:32:51;;;;;;;8.57;5.30;;;18.60;99.90;;;;;;5014415;28;20497;-71
2023/10/06 02:35:17;;;;;;;13.38;6.50;;;18.50;99.90;;;;;;4997266;28;20045;-72
2023/10/06 02:37:47;;;;;;;12.63;6.45;;;18.60;99.90;;;;;;5014413;28;20041;-74
2023/10/06 02:40:12;;;;;;;15.98;5.95;;;18.60;99.90;;;;;;5013562;28;20080;-72
2023/10/06 02:42:47;;;;;;;10.50;6.22;;;18.60;99.90;;;;;;4998435;28;20417;-75
2023/10/06 02:45:20;;;;;;;;;;;18.60;99.90;;;;;;4997953;28;20072;-72
2023/10/06 02:47:47;;;;;;;10.68;6.47;;;18.60;99.90;;;;;;4996450;28;19924;-75
2023/10/06 02:50:20;;;;;;;15.48;6.97;;;18.60;99.90;;;;;;5014254;28;20047;-73
2023/10/06 02:52:47;;;;;;;16.05;6.72;;;18.60;99.90;;;;;;5014629;28;20049;-72
2023/10/06 02:55:18;;;;;;;15.43;6.95;;;18.60;99.90;;;;;;5047604;28;20056;-71
2023/10/06 02:57:50;;;;;;;8.50;6.63;;;18.50;99.90;;;;;;4998365;28;20561;-73
2023/10/06 03:03:02;;;;;;;11.27;6.55;;;18.50;99.90;;;;;;5012836;28;20068;-71
2023/10/06 03:05:39;;;;;;;12.57;6.45;;;18.60;99.90;;;;;;4999657;28;20371;-73
2023/10/06 03:08:08;;;;;;;14.30;6.25;;;18.60;99.90;;;;;;4998751;28;20092;-70
2023/10/06 03:10:44;;;;;;;16.10;6.90;;;18.60;99.90;;;;;;4998368;28;20053;-72
2023/10/06 03:13:16;;;;;;;12.93;6.50;;;18.60;99.90;;;;;;5013383;28;20100;-75
2023/10/06 03:15:46;;;;;;;13.98;6.72;;;18.50;99.90;;;;;;5013916;28;20060;-71
2023/10/06 03:18:13;;;;;;;13.98;6.57;;;18.50;99.90;;;;;;5013323;28;20067;-73
2023/10/06 03:20:48;;;;;;;12.45;6.38;;;18.50;99.90;;;;;;5012337;28;20645;-72
2023/10/06 03:25:53;;;;;;;15.75;7.20;;;18.50;99.90;;;;;;5014125;28;20060;-73
2023/10/06 03:28:36;;;;;;;14.45;7.28;;;18.60;99.90;;;;;;5013150;28;20076;-74
2023/10/06 03:31:09;;;;;;;16.23;6.43;;;18.50;99.90;;;;;;5013584;28;20041;-74
2023/10/06 03:33:35;;;;;;;15.80;6.95;;;18.60;99.90;;;;;;4997676;28;20042;-73
2023/10/06 03:36:01;;;;;;;19.73;7.10;;;18.60;99.90;;;;;;4992281;28;20048;-75
2023/10/06 03:46:03;;;;;;;19.63;8.20;;;18.50;99.90;;;;;;4993616;28;20104;-73
2023/10/06 03:48:32;;;;;;;14.82;8.30;;;18.50;99.90;;;;;;4994294;28;20046;-71
2023/10/06 03:50:58;;;;;;;12.70;7.47;;;18.60;99.90;;;;;;5012035;28;20501;-75
2023/10/06 03:53:24;;;;;;;11.55;6.90;;;18.70;99.90;;;;;;5011462;28;20045;-71
2023/10/06 03:55:50;;;;;;;10.05;6.88;;;18.50;99.90;;;;;;5013389;28;20068;-72
2023/10/06 03:58:18;;;;;;;14.82;7.50;;;18.60;99.90;;;;;;5013136;28;20681;-73
2023/10/06 04:00:47;;;;;;;17.13;8.07;;;18.60;99.90;;;;;;5012575;28;20041;-71
2023/10/06 04:03:14;;;;;;;13.88;7.50;;;18.50;99.90;;;;;;5029481;28;20045;-73
2023/10/06 04:05:44;;;;;;;19.05;9.15;;;18.50;99.90;;;;;;5012246;28;20140;-70
2023/10/06 04:08:16;;;;;;;14.60;8.30;;;18.60;99.90;;;;;;5012996;28;20033;-73
2023/10/06 04:10:48;;;;;;;11.40;7.63;;;18.60;99.90;;;;;;5011257;28;20042;-73
2023/10/06 04:13:16;;;;;;;21.75;8.15;;;18.50;99.90;;;;;;5012551;28;20493;-72
2023/10/06 04:15:48;;;;;;;19.23;8.75;;;18.50;99.90;;;;;;4996052;28;20049;-73
2023/10/06 04:18:17;;;;;;;18.90;8.95;;;18.50;99.90;;;;;;5011335;28;20057;-71
2023/10/06 04:20:44;;;;;;;18.65;8.25;;;18.50;99.90;;;;;;5012977;28;20037;-71
2023/10/06 04:23:17;;;;;;;18.73;8.63;;;18.60;99.90;;;;;;5012575;28;20492;-73
2023/10/06 04:25:43;;;;;;;19.30;8.88;;;18.50;99.90;;;;;;5012930;28;20049;-74
2023/10/06 04:28:14;;;;;;;17.77;9.07;;;18.60;99.90;;;;;;5011352;28;20132;-73
2023/10/06 04:30:44;;;;;;;17.00;9.73;;;18.50;99.90;;;;;;5045182;28;20080;-73
2023/10/06 04:33:14;;;;;;;22.92;9.38;;;18.50;99.90;;;;;;4980154;28;20045;-72
2023/10/06 04:35:55;;;;;;;17.67;8.77;;;18.50;99.90;;;;;;5012745;28;20045;-74
2023/10/06 04:38:26;;;;;;;15.88;9.00;;;18.50;99.90;;;;;;5011780;28;20096;-74
2023/10/06 04:40:52;;;;;;;14.80;8.43;;;18.50;99.90;;;;;;5012254;28;20041;-74
2023/10/06 04:43:18;;;;;;;16.40;8.45;;;18.50;99.90;;;;;;5012012;28;20603;-73
2023/10/06 04:45:47;;;;;;;15.32;8.48;;;18.40;99.90;;;;;;5009317;28;20095;-76
2023/10/06 04:48:20;;;;;;;19.55;8.73;;;18.50;99.90;;;;;;5011194;28;20048;-75
2023/10/06 04:50:50;;;;;;;15.02;8.20;;;18.50;99.90;;;;;;5010422;28;20077;-72
2023/10/06 04:53:16;;;;;;;15.25;8.02;;;18.40;99.90;;;;;;5010688;28;20788;-75
2023/10/06 04:55:43;;;;;;;18.55;7.75;;;18.40;99.90;;;;;;5025477;28;20627;-72
2023/10/06 04:58:15;;;;;;;13.52;7.97;;;18.40;99.90;;;;;;5007789;28;20092;-72
2023/10/06 05:00:52;;;;;;;16.50;7.72;;;18.50;99.90;;;;;;5027902;28;20363;-75
2023/10/06 05:03:18;;;;;;;20.95;8.98;;;18.40;99.90;;;;;;5010786;28;20060;-71
2023/10/06 05:05:44;;;;;;;14.70;8.30;;;18.50;99.90;;;;;;4992507;28;20042;-75
2023/10/06 05:08:14;;;;;;;15.05;7.55;;;18.50;99.90;;;;;;5010509;28;20046;-72
2023/10/06 05:10:40;;;;;;;13.75;7.45;;;18.40;99.90;;;;;;5028525;28;20049;-74
2023/10/06 05:13:10;;;;;;;22.15;7.18;;;18.50;99.90;;;;;;5014444;28;20049;-73
2023/10/06 05:15:37;;;;;;;13.75;6.93;;;18.60;99.90;;;;;;4995346;28;20378;-74
2023/10/06 05:18:04;;;;;;;14.90;6.30;;;18.50;99.90;;;;;;5011193;28;20060;-74
2023/10/06 05:20:31;;;;;;;29.83;9.60;;;18.50;99.90;;;;;;4993824;28;20045;-73
2023/10/06 05:23:05;;;;;;;18.33;7.95;;;18.40;99.90;;;;;;5009937;28;20049;-70
2023/10/06 05:25:32;;;;;;;21.55;7.10;;;18.50;99.90;;;;;;5010777;28;20128;-72
2023/10/06 05:28:02;;;;;;;16.25;7.22;;;18.60;99.90;;;;;;4995468;28;20041;-71
2023/10/06 05:30:29;;;;;;;26.17;7.45;;;18.50;99.90;;;;;;5011201;28;20511;-75
2023/10/06 05:32:59;;;;;;;16.30;7.32;;;18.50;99.90;;;;;;4994120;28;20072;-71
2023/10/06 05:35:35;;;;;;;14.30;6.80;;;18.50;99.90;;;;;;5009605;28;20041;-75
2023/10/06 05:38:08;;;;;;;15.93;6.85;;;18.50;99.90;;;;;;5009597;28;20038;-75
2023/10/06 05:40:36;;;;;;;15.63;7.63;;;18.40;99.90;;;;;;5008223;28;20119;-74
2023/10/06 05:43:04;;;;;;;12.27;6.80;;;18.50;99.90;;;;;;5010106;28;20073;-75
2023/10/06 05:45:30;;;;;;;13.65;7.03;;;18.50;99.90;;;;;;4993077;28;20041;-72
2023/10/06 05:48:06;;;;;;;21.88;7.65;;;18.40;99.90;;;;;;5010320;28;20096;-75
2023/10/06 05:50:35;;;;;;;13.77;7.25;;;18.30;99.90;;;;;;5034628;28;20112;-72
2023/10/06 05:53:04;;;;;;;18.35;7.90;;;18.30;99.90;;;;;;5007073;28;20693;-73
2023/10/06 05:55:38;;;;;;;16.85;7.90;;;18.30;99.90;;;;;;5010788;28;20049;-72
2023/10/06 05:58:06;;;;;;;17.92;7.00;;;18.30;99.90;;;;;;5008910;28;20039;-71
2023/10/06 06:00:33;;;;;;;11.07;6.35;;;18.30;99.90;;;;;;4994209;28;20040;-72
2023/10/06 06:03:21;;;;;;;17.73;6.95;;;18.30;99.90;;;;;;4992968;28;20049;-72
2023/10/06 06:05:57;;;;;;;15.77;7.20;;;18.50;99.90;;;;;;5008703;28;20474;-74
2023/10/06 06:08:23;;;;;;;14.80;6.57;;;18.50;99.90;;;;;;4969562;28;20120;-73
2023/10/06 06:10:49;;;;;;;15.32;7.43;;;18.30;99.90;;;;;;5009194;28;20870;-72
2023/10/06 06:13:17;;;;;;;20.02;6.70;;;18.30;99.90;;;;;;4989941;28;20042;-71
2023/10/06 06:15:53;;;;;;;20.75;8.00;;;18.50;99.90;;;;;;4986257;28;20045;-71
2023/10/06 06:18:19;;;;;;;16.77;6.80;;;18.50;99.90;;;;;;4995228;28;20062;-75
2023/10/06 06:20:45;;;;;;;20.58;7.88;;;18.50;99.90;;;;;;4989842;28;20038;-72
2023/10/06 06:23:15;;;;;;;13.93;6.90;;;18.40;99.90;;;;;;5004234;28;20046;-71
2023/10/06 06:25:42;;;;;;;17.50;7.20;;;18.50;99.90;;;;;;5003331;28;20041;-73
2023/10/06 06:28:12;;;;;;;23.55;7.90;;;18.50;99.90;;;;;;4990697;28;20045;-74
2023/10/06 06:30:39;;;;;;;32.30;7.90;;;18.50;99.90;;;;;;4999549;28;20121;-73
2023/10/06 06:33:13;;;;;;;21.25;7.80;;;18.60;99.90;;;;;;4995864;28;20072;-75
2023/10/06 06:35:42;;;;;;;25.05;8.13;;;18.70;99.90;;;;;;4988127;28;20053;-72
2023/10/06 06:38:07;;;;;;;24.02;8.15;;;18.70;99.90;;;;;;4990709;28;20045;-74
2023/10/06 06:40:37;;;;;;;20.17;7.88;;;18.60;99.90;;;;;;5015350;28;20042;-76
2023/10/06 06:43:08;;;;;;;14.68;7.22;;;18.80;99.90;;;;;;4977695;28;20041;-70
2023/10/06 06:45:39;;;;;;;45.10;9.00;;;18.70;99.90;;;;;;5025349;28;20121;-75
2023/10/06 06:48:13;;;;;;;22.05;7.60;;;18.70;99.90;;;;;;5020933;28;20045;-75
2023/10/06 06:50:42;;;;;;;15.50;7.20;;;18.80;99.90;;;;;;5031541;28;20049;-71
2023/10/06 06:53:08;;;;;;;17.27;7.50;;;18.70;99.90;;;;;;5040579;28;20120;-75
2023/10/06 06:55:34;;;;;;;21.50;7.47;;;18.70;99.90;;;;;;5003781;28;20034;-73
2023/10/06 06:58:05;;;;;;;12.60;6.63;;;18.90;99.90;;;;;;5011004;28;20045;-73
2023/10/06 07:00:31;;;;;;;12.77;7.65;;;18.80;99.90;;;;;;5037330;28;20030;-70
2023/10/06 07:02:58;;;;;;;15.23;7.28;;;18.80;99.90;;;;;;4999513;28;20191;-74
2023/10/06 07:05:24;;;;;;;14.23;7.20;;;18.80;99.90;;;;;;4975172;28;20033;-72
2023/10/06 07:07:51;;;;;;;19.38;7.82;;;18.90;99.90;;;;;;4996234;28;20482;-73
2023/10/06 07:10:20;;;;;;;17.10;7.53;;;18.90;99.90;;;;;;4986336;28;20049;-75
2023/10/06 07:12:51;;;;;;;15.98;7.18;;;18.90;99.90;;;;;;5030811;28;20049;-73
2023/10/06 07:15:19;;;;;;;19.15;7.65;;;18.90;99.90;;;;;;4980380;28;20617;-69
2023/10/06 07:17:45;;;;;;;15.13;7.70;;;19.00;99.90;;;;;;5013268;28;20049;-75
2023/10/06 07:20:16;;;;;;;16.10;7.78;;;19.00;99.90;;;;;;5013921;28;20556;-71
2023/10/06 07:22:46;;;;;;;15.07;7.63;;;19.20;99.90;;;;;;5013300;28;20161;-71
2023/10/06 07:25:16;;;;;;;20.20;8.00;;;19.10;99.90;;;;;;5010441;28;20037;-72
2023/10/06 07:27:44;;;;;;;11.98;7.13;;;19.00;99.90;;;;;;5012638;28;20099;-74
2023/10/06 07:30:11;;;;;;;14.73;7.60;;;19.10;99.90;;;;;;5013501;28;20052;-74
2023/10/06 07:32:41;;;;;;;12.80;7.20;;;19.10;99.90;;;;;;5012453;28;20057;-75
2023/10/06 07:35:08;;;;;;;14.80;7.32;;;19.10;99.90;;;;;;5009208;28;20033;-71
2023/10/06 07:37:36;;;;;;;11.85;6.57;;;19.20;99.90;;;;;;5012203;28;20029;-75
2023/10/06 07:40:12;;;;;;;17.23;7.55;;;19.10;99.90;;;;;;4997158;28;20041;-72
2023/10/06 07:42:42;;;;;;;19.35;7.20;;;19.20;99.90;;;;;;5007686;28;20041;-74
2023/10/06 07:45:09;;;;;;;15.40;6.88;;;19.20;99.90;;;;;;5014304;28;20129;-76
2023/10/06 07:47:36;;;;;;;21.45;8.02;;;19.30;99.90;;;;;;4992892;28;20046;-76
2023/10/06 07:50:05;;;;;;;16.20;7.63;;;19.30;99.90;;;;;;5009656;28;20061;-72
2023/10/06 07:52:32;;;;;;;11.10;7.07;;;19.50;99.90;;;;;;4993069;28;20058;-74
2023/10/06 07:54:58;;;;;;;17.63;8.70;;;19.30;99.90;;;;;;4999461;28;20136;-72
2023/10/06 07:57:24;;;;;;;17.23;8.65;;;19.40;99.90;;;;;;5011070;28;20631;-73
2023/10/06 07:59:50;;;;;;;19.95;9.35;;;19.40;99.90;;;;;;5006501;28;20041;-73
2023/10/06 08:02:16;;;;;;;14.65;8.27;;;19.50;99.90;;;;;;5011380;28;20037;-76
2023/10/06 08:04:41;;;;;;;14.98;8.10;;;19.30;99.90;;;;;;5011591;28;20045;-75
2023/10/06 08:07:07;;;;;;;16.77;9.18;;;19.40;99.90;;;;;;4979680;28;20088;-77
2023/10/06 08:09:33;;;;;;;17.15;8.32;;;19.20;99.90;;;;;;4995822;28;20046;-73
2023/10/06 08:11:58;;;;;;;15.35;8.90;;;19.40;99.90;;;;;;5012648;28;20041;-74
2023/10/06 08:14:24;;;;;;;17.88;9.50;;;19.40;99.90;;;;;;5008638;28;20124;-74
2023/10/06 08:16:51;;;;;;;20.52;9.13;;;19.50;99.90;;;;;;5009485;28;20512;-76
2023/10/06 08:19:17;;;;;;;13.20;8.82;;;19.50;99.90;;;;;;5012243;28;20434;-73
2023/10/06 08:21:43;;;;;;;12.93;8.48;;;19.50;99.90;;;;;;5011906;28;20047;-74
2023/10/06 08:24:09;;;;;;;18.20;8.43;;;19.50;99.90;;;;;;4995143;28;20123;-76
2023/10/06 08:26:36;;;;;;;14.77;8.30;;;19.70;99.90;;;;;;5011129;28;20075;-75
2023/10/06 08:29:05;;;;;;;14.55;9.13;;;19.50;99.90;;;;;;5012255;28;20060;-74
2023/10/06 08:31:31;;;;;;;16.10;8.70;;;19.60;99.90;;;;;;4979717;28;20430;-71
2023/10/06 08:34:06;;;;;;;18.20;9.02;;;19.70;99.90;;;;;;5007312;28;20041;-74
2023/10/06 08:36:32;;;;;;;12.93;7.38;;;19.60;99.90;;;;;;5005550;28;20060;-78
2023/10/06 08:38:58;;;;;;;14.57;9.38;;;19.70;99.90;;;;;;5012153;28;20041;-76
2023/10/06 08:41:35;;;;;;;17.95;7.13;;;19.90;99.90;;;;;;4979627;28;20128;-71
2023/10/06 08:44:02;;;;;;;28.58;9.15;;;19.90;99.90;;;;;;5012041;28;20112;-73
2023/10/06 08:46:34;;;;;;;12.63;8.00;;;19.70;99.90;;;;;;4994197;28;20111;-74
2023/10/06 08:49:02;;;;;;;14.75;8.15;;;19.80;99.90;;;;;;5011872;28;20567;-76
2023/10/06 08:51:32;;;;;;;15.55;8.57;;;19.90;99.90;;;;;;5009706;28;20406;-73
2023/10/06 08:54:01;;;;;;;17.88;8.65;;;20.00;99.90;;;;;;5011898;28;20037;-74
2023/10/06 08:56:28;;;;;;;17.20;8.05;;;20.20;99.90;;;;;;5009469;28;20072;-75
2023/10/06 08:58:54;;;;;;;20.67;9.02;;;20.30;99.90;;;;;;5011202;28;20079;-76
2023/10/06 09:01:20;;;;;;;14.23;7.93;;;20.30;99.90;;;;;;5011944;28;20045;-71
2023/10/06 09:03:49;;;;;;;13.40;6.97;;;20.20;99.90;;;;;;4995240;28;20571;-74
2023/10/06 09:06:15;;;;;;;13.70;8.07;;;20.50;99.90;;;;;;4995057;28;20056;-73
2023/10/06 09:08:42;;;;;;;14.52;8.07;;;20.40;99.90;;;;;;4990449;28;20417;-75
2023/10/06 09:11:12;;;;;;;16.13;7.40;;;20.40;99.90;;;;;;5009729;28;20072;-71
2023/10/06 09:13:38;;;;;;;17.10;7.72;;;20.60;99.90;;;;;;5028216;28;20136;-70
2023/10/06 09:16:08;;;;;;;16.10;7.07;;;20.70;99.90;;;;;;5044749;28;20128;-73
2023/10/06 09:18:35;;;;;;;18.35;7.78;;;20.80;99.90;;;;;;4993601;28;20118;-75
2023/10/06 09:21:20;;;;;;;13.07;7.07;;;20.90;99.90;;;;;;5011332;28;20124;-75
2023/10/06 09:23:47;;;;;;;18.38;7.50;;;20.90;99.90;;;;;;5011343;28;20892;-77
2023/10/06 09:26:24;;;;;;;16.38;7.20;;;20.90;99.90;;;;;;4992838;28;20128;-74
2023/10/06 09:28:53;;;;;;;14.82;6.65;;;21.00;99.90;;;;;;5032887;28;20085;-76
2023/10/06 09:31:40;;;;;;;20.48;6.53;;;21.10;99.90;;;;;;5004631;28;20049;-76
2023/10/06 09:34:08;;;;;;;20.30;6.95;;;21.10;99.90;;;;;;5011560;28;20525;-77
2023/10/06 09:36:34;;;;;;;13.55;6.13;;;21.20;99.90;;;;;;5011023;28;20040;-76
2023/10/06 09:39:01;;;;;;;13.57;5.80;;;21.10;99.90;;;;;;5010733;28;20041;-75
2023/10/06 09:41:32;;;;;;;12.30;6.22;;;21.10;99.90;;;;;;4995225;28;20046;-76
2023/10/06 09:44:08;;;;;;;12.20;6.10;;;21.10;99.90;;;;;;5008794;28;20042;-77
2023/10/06 09:46:35;;;;;;;31.65;6.80;;;21.10;99.90;;;;;;5020628;28;20045;-75
2023/10/06 09:49:06;;;;;;;16.98;6.40;;;21.20;99.90;;;;;;5007106;28;20061;-72
2023/10/06 09:51:33;;;;;;;12.23;5.72;;;21.40;99.90;;;;;;4991124;28;20056;-73
2023/10/06 09:54:00;;;;;;;10.85;5.68;;;21.60;99.90;;;;;;4975398;28;20124;-72
2023/10/06 09:56:27;;;;;;;16.88;5.95;;;21.70;99.90;;;;;;4991441;28;20042;-75
2023/10/06 09:58:54;;;;;;;14.25;5.05;;;21.80;99.90;;;;;;5024937;28;20360;-72
2023/10/06 10:01:25;;;;;;;13.32;5.45;;;21.80;99.90;;;;;;5004915;28;20045;-71
2023/10/06 10:03:56;;;;;;;14.32;5.38;;;21.70;99.90;;;;;;5043379;28;20533;-75
2023/10/06 10:06:22;;;;;;;8.70;4.90;;;21.70;99.90;;;;;;5011188;28;20119;-73
2023/10/06 10:08:51;;;;;;;16.35;5.18;;;21.80;99.90;;;;;;4991444;28;20033;-75
2023/10/06 10:11:28;;;;;;;15.25;5.03;;;21.90;99.90;;;;;;5035682;28;20508;-75
2023/10/06 10:14:27;;;;;;;8.73;4.68;;;22.00;99.90;;;;;;4994593;28;20045;-73
2023/10/06 10:17:24;;;;;;;12.20;4.88;;;22.10;99.90;;;;;;5041915;28;20452;-72
2023/10/06 10:19:51;;;;;;;12.45;5.28;;;22.00;99.90;;;;;;4991495;28;20137;-73
2023/10/06 10:22:18;;;;;;;12.80;5.25;;;22.10;99.90;;;;;;5007048;28;20073;-77
2023/10/06 10:24:47;;;;;;;12.05;4.90;;;22.10;99.90;;;;;;5013853;28;20052;-75
2023/10/06 10:27:14;;;;;;;18.17;5.35;;;22.10;99.90;;;;;;4982235;28;20049;-77
2023/10/06 10:29:41;;;;;;;17.88;5.10;;;22.20;99.90;;;;;;4997076;28;20120;-76
2023/10/06 10:32:25;;;;;;;13.45;4.93;;;22.30;99.90;;;;;;5014448;28;21854;-76
2023/10/06 10:35:14;;;;;;;13.02;4.72;;;22.50;99.90;;;;;;4996915;28;20038;-76
2023/10/06 10:38:02;;;;;;;12.20;4.80;;;22.50;99.90;;;;;;5014352;28;20100;-78
2023/10/06 10:40:29;;;;;;;23.75;5.50;;;22.50;99.90;;;;;;4994911;28;20038;-75
2023/10/06 10:43:00;;;;;;;13.57;4.55;;;22.60;99.90;;;;;;5012963;28;20474;-77
2023/10/06 10:45:35;;;;;;;10.93;4.72;;;22.70;99.90;;;;;;4997466;28;20049;-75
2023/10/06 10:48:13;;;;;;;13.50;4.07;;;22.60;99.90;;;;;;4997452;28;20107;-75
2023/10/06 10:51:01;;;;;;;11.52;4.95;;;22.60;99.90;;;;;;5012876;28;20052;-79
2023/10/06 10:53:44;;;;;;;15.77;5.20;;;22.40;99.90;;;;;;5011786;28;20045;-78
2023/10/06 10:56:32;;;;;;;16.95;5.82;;;22.40;99.90;;;;;;5013994;28;20099;-80
2023/10/06 10:58:58;;;;;;;10.20;4.57;;;22.40;99.90;;;;;;5034957;28;20088;-76
2023/10/06 11:01:29;;;;;;;11.35;4.30;;;22.40;99.90;;;;;;4978914;28;20065;-77
2023/10/06 11:06:39;;;;;;;12.77;4.63;;;22.50;99.90;;;;;;5013645;28;20128;-78
2023/10/06 11:09:22;;;;;;;14.27;4.68;;;22.50;99.90;;;;;;4993770;28;20041;-74
2023/10/06 11:11:48;;;;;;;13.57;4.82;;;22.70;99.90;;;;;;4965191;28;20154;-76
2023/10/06 11:14:14;;;;;;;10.77;4.45;;;22.80;99.90;;;;;;5018621;28;20517;-81
2023/10/06 11:16:49;;;;;;;9.88;4.18;;;22.90;99.90;;;;;;4996574;28;20124;-76
2023/10/06 11:19:16;;;;;;;10.82;4.07;;;23.00;99.90;;;;;;4994375;28;20787;-75
2023/10/06 11:21:47;;;;;;;14.90;4.07;;;23.10;99.90;;;;;;5013026;28;20471;-78
2023/10/06 11:24:29;;;;;;;16.33;4.22;;;23.20;99.90;;;;;;5012862;28;20052;-76
2023/10/06 11:26:55;;;;;;;15.25;4.95;;;23.40;99.90;;;;;;4993795;28;20040;-73
2023/10/06 11:29:31;;;;;;;8.63;3.60;;;23.30;99.90;;;;;;5046326;28;20049;-77
2023/10/06 11:32:02;;;;;;;9.60;4.10;;;23.20;99.90;;;;;;5009830;28;20041;-79
2023/10/06 11:34:28;;;;;;;13.70;3.95;;;23.50;99.90;;;;;;5010120;28;20486;-74
2023/10/06 11:36:56;;;;;;;12.48;4.50;;;23.60;99.90;;;;;;5012348;28;20040;-78
2023/10/06 11:39:26;;;;;;;13.75;4.13;;;23.50;99.90;;;;;;5012876;28;20116;-77
2023/10/06 11:41:52;;;;;;;11.40;3.33;;;23.50;99.90;;;;;;5012670;28;20048;-75
2023/10/06 11:44:21;;;;;;;13.73;4.07;;;23.40;99.90;;;;;;4995600;28;20050;-79
2023/10/06 11:46:51;;;;;;;9.48;3.38;;;23.20;99.90;;;;;;5031879;28;20048;-76
2023/10/06 11:49:19;;;;;;;18.85;3.75;;;23.30;99.90;;;;;;4976598;28;20050;-75
2023/10/06 11:51:45;;;;;;;17.23;4.18;;;23.40;99.90;;;;;;5025328;28;20394;-77
2023/10/06 11:54:11;;;;;;;13.23;4.07;;;23.40;99.90;;;;;;5025474;28;20046;-78
2023/10/06 11:56:50;;;;;;;14.55;4.07;;;23.50;99.90;;;;;;5007704;28;20614;-76
2023/10/06 11:59:20;;;;;;;14.73;4.07;;;23.40;99.90;;;;;;5012780;28;20045;-80
2023/10/06 12:01:46;;;;;;;9.52;3.70;;;23.40;99.90;;;;;;4994514;28;20037;-77
2023/10/06 12:04:31;;;;;;;13.27;3.95;;;23.50;99.90;;;;;;5029069;28;20057;-77
2023/10/06 12:07:00;;;;;;;13.55;4.28;;;23.60;99.90;;;;;;4991742;28;20064;-78
2023/10/06 12:09:34;;;;;;;13.55;3.88;;;23.60;99.90;;;;;;4997652;28;20049;-78
2023/10/06 12:12:01;;;;;;;9.07;3.53;;;23.60;99.90;;;;;;5012785;28;20045;-78
2023/10/06 12:14:27;;;;;;;14.73;4.32;;;23.70;99.90;;;;;;4996545;28;20821;-79
2023/10/06 12:16:56;;;;;;;12.85;3.25;;;23.80;99.90;;;;;;5009717;28;20379;-77
2023/10/06 12:19:25;;;;;;;12.30;3.20;;;23.90;99.90;;;;;;5009839;28;20140;-77
2023/10/06 12:21:51;;;;;;;11.82;3.67;;;24.00;99.90;;;;;;5028462;28;20128;-76
2023/10/06 12:24:17;;;;;;;11.35;3.63;;;23.90;99.90;;;;;;5046065;28;20389;-78
2023/10/06 12:26:46;;;;;;;11.43;3.30;;;24.00;99.90;;;;;;5027728;28;20099;-75
2023/10/06 12:29:16;;;;;;;12.23;3.65;;;24.10;99.90;;;;;;4976041;28;20046;-77
2023/10/06 12:31:46;;;;;;;11.70;3.13;;;24.10;99.90;;;;;;4997055;28;20090;-76
2023/10/06 12:34:15;;;;;;;11.02;3.72;;;24.00;99.90;;;;;;5010224;28;20052;-75
2023/10/06 12:36:47;;;;;;;11.48;3.30;;;23.80;99.90;;;;;;5009088;28;20610;-76
2023/10/06 12:39:17;;;;;;;15.13;3.10;;;23.90;99.90;;;;;;5014498;28;20045;-78
2023/10/06 12:41:46;;;;;;;22.05;3.90;;;23.90;99.90;;;;;;5012295;28;20033;-78
2023/10/06 12:44:13;;;;;;;10.63;3.65;;;23.80;99.90;;;;;;5012303;28;20033;-78
2023/10/06 12:46:40;;;;;;;10.07;3.03;;;23.80;99.90;;;;;;5011720;28;20052;-76
2023/10/06 12:49:06;;;;;;;11.23;3.10;;;23.90;99.90;;;;;;5010170;28;20041;-79
2023/10/06 12:51:36;;;;;;;13.15;4.32;;;23.90;99.90;;;;;;4995839;28;20251;-77
2023/10/06 12:54:03;;;;;;;12.10;3.63;;;23.80;99.90;;;;;;5008623;28;20041;-80
2023/10/06 12:56:29;;;;;;;14.00;2.97;;;23.80;99.90;;;;;;5011247;28;20029;-80
2023/10/06 12:58:55;;;;;;;12.07;3.42;;;23.60;99.90;;;;;;5020855;28;20125;-78
2023/10/06 13:01:21;;;;;;;11.98;2.90;;;23.80;99.90;;;;;;4992168;28;20037;-77
2023/10/06 13:03:46;;;;;;;10.40;3.20;;;23.70;99.90;;;;;;4995662;28;20052;-78
2023/10/06 13:06:15;;;;;;;8.00;2.90;;;23.60;99.90;;;;;;5011819;28;20045;-76
2023/10/06 13:08:41;;;;;;;11.85;3.67;;;23.60;99.90;;;;;;5026650;28;20042;-80
2023/10/06 13:11:10;;;;;;;13.20;2.97;;;23.50;99.90;;;;;;4973796;28;20044;-79
2023/10/06 13:13:36;;;;;;;7.25;2.42;;;23.50;99.90;;;;;;5026575;28;20053;-80